createdAt,value
2019-05-06T00:02:04.489Z,4.95
2019-05-06T00:04:34.874Z,4.95
2019-05-06T00:07:05.350Z,5.00
2019-05-06T00:09:36.661Z,4.89
2019-05-06T00:12:07.166Z,4.93
2019-05-06T00:14:37.645Z,4.83
2019-05-06T00:17:08.575Z,4.85
2019-05-06T00:19:39.153Z,4.71
2019-05-06T00:22:09.618Z,4.69
2019-05-06T00:24:46.530Z,4.65
2019-05-06T00:27:21.583Z,4.68
2019-05-06T00:29:54.801Z,4.59
2019-05-06T00:32:24.465Z,4.56
2019-05-06T00:34:54.885Z,4.57
2019-05-06T00:37:25.410Z,4.52
2019-05-06T00:40:07.640Z,4.53
2019-05-06T00:42:47.667Z,4.49
2019-05-06T00:45:18.162Z,4.37
2019-05-06T00:47:48.674Z,4.36
2019-05-06T00:50:19.140Z,4.40
2019-05-06T00:52:50.930Z,4.29
2019-05-06T00:55:21.390Z,4.33
2019-05-06T00:57:51.918Z,4.34
2019-05-06T01:00:27.712Z,4.23
2019-05-06T01:02:58.229Z,4.28
2019-05-06T01:05:28.937Z,4.31
2019-05-06T01:07:59.428Z,4.37
2019-05-06T01:10:30.237Z,4.40
2019-05-06T01:13:06.501Z,4.48
2019-05-06T01:15:37.183Z,4.51
2019-05-06T01:18:07.632Z,4.58
2019-05-06T01:20:38.129Z,4.59
2019-05-06T01:23:08.615Z,4.53
2019-05-06T01:25:39.146Z,4.61
2019-05-06T01:28:09.604Z,4.57
2019-05-06T01:30:40.225Z,4.60
2019-05-06T01:33:10.698Z,4.54
2019-05-06T01:35:41.183Z,4.53
2019-05-06T01:38:33.806Z,4.51
2019-05-06T01:41:33.869Z,4.37
2019-05-06T01:44:04.378Z,4.34
2019-05-06T01:46:34.845Z,4.31
2019-05-06T01:49:05.506Z,4.31
2019-05-06T01:51:36.002Z,4.33
2019-05-06T01:54:06.472Z,4.16
2019-05-06T01:56:36.958Z,4.16
2019-05-06T01:59:07.466Z,4.09
2019-05-06T02:01:37.985Z,4.12
2019-05-06T02:04:08.424Z,4.11
2019-05-06T02:06:38.940Z,4.13
2019-05-06T02:09:16.327Z,4.24
2019-05-06T02:11:48.006Z,4.24
2019-05-06T02:14:18.972Z,4.27
2019-05-06T02:16:49.434Z,4.21
2019-05-06T02:19:19.929Z,4.21
2019-05-06T02:22:06.165Z,4.30
2019-05-06T02:24:43.971Z,4.31
2019-05-06T02:27:14.770Z,4.31
2019-05-06T02:29:51.263Z,4.31
2019-05-06T02:32:40.629Z,4.41
2019-05-06T02:35:20.569Z,4.49
2019-05-06T02:37:50.980Z,4.41
2019-05-06T02:40:25.607Z,4.23
2019-05-06T02:42:56.097Z,4.19
2019-05-06T02:45:26.701Z,4.14
2019-05-06T02:48:04.660Z,4.21
2019-05-06T02:50:53.846Z,4.16
2019-05-06T02:53:26.731Z,4.09
2019-05-06T02:55:57.336Z,4.03
2019-05-06T02:58:27.831Z,4.04
2019-05-06T03:00:58.351Z,3.91
2019-05-06T03:03:28.847Z,3.93
2019-05-06T03:05:59.333Z,3.99
2019-05-06T03:08:32.696Z,4.00
2019-05-06T03:11:04.039Z,3.89
2019-05-06T03:13:34.422Z,3.87
2019-05-06T03:16:05.747Z,3.89
2019-05-06T03:18:36.746Z,3.92
2019-05-06T03:21:20.270Z,3.99
2019-05-06T03:23:56.690Z,4.15
2019-05-06T03:26:27.181Z,4.15
2019-05-06T03:28:57.702Z,4.20
2019-05-06T03:31:28.233Z,4.18
2019-05-06T03:34:22.126Z,4.06
2019-05-06T03:36:38.512Z,4.08
2019-05-06T03:39:03.359Z,4.11
2019-05-06T03:41:34.092Z,4.08
2019-05-06T03:44:04.668Z,4.04
2019-05-06T03:47:05.688Z,4.02
2019-05-06T03:49:38.281Z,4.10
2019-05-06T03:52:08.797Z,4.08
2019-05-06T03:54:44.991Z,4.19
2019-05-06T03:57:13.935Z,4.21
2019-05-06T03:59:45.958Z,4.12
2019-05-06T04:02:17.857Z,4.17
2019-05-06T04:04:48.357Z,4.14
2019-05-06T04:07:19.101Z,4.14
2019-05-06T04:09:49.608Z,4.21
2019-05-06T04:12:23.298Z,4.15
2019-05-06T04:14:54.357Z,4.17
2019-05-06T04:17:47.048Z,4.17
2019-05-06T04:20:34.311Z,4.19
2019-05-06T04:23:19.339Z,4.19
2019-05-06T04:26:08.879Z,4.26
2019-05-06T04:28:39.493Z,4.37
2019-05-06T04:31:13.149Z,4.44
2019-05-06T04:33:55.405Z,4.59
2019-05-06T04:36:14.938Z,4.60
2019-05-06T04:38:45.465Z,4.58
2019-05-06T04:41:16.016Z,4.68
2019-05-06T04:43:46.493Z,4.66
2019-05-06T04:46:17.204Z,4.63
2019-05-06T04:48:47.855Z,4.63
2019-05-06T04:51:18.527Z,4.72
2019-05-06T04:53:49.580Z,4.83
2019-05-06T04:56:23.433Z,4.93
2019-05-06T04:58:53.801Z,4.99
2019-05-06T05:01:24.843Z,5.04
2019-05-06T05:03:56.318Z,5.21
2019-05-06T05:06:27.280Z,5.26
2019-05-06T05:08:58.257Z,5.40
2019-05-06T05:11:53.266Z,5.48
2019-05-06T05:14:35.023Z,5.73
2019-05-06T05:17:12.885Z,5.71
2019-05-06T05:19:43.489Z,5.63
2019-05-06T05:22:14.340Z,5.75
2019-05-06T05:24:45.439Z,5.76
2019-05-06T05:27:16.147Z,5.92
2019-05-06T05:29:46.834Z,6.04
2019-05-06T05:32:23.081Z,6.00
2019-05-06T05:34:53.575Z,6.01
2019-05-06T05:37:24.547Z,6.21
2019-05-06T05:39:55.109Z,6.38
2019-05-06T05:42:39.654Z,6.46
2019-05-06T05:45:12.829Z,6.56
2019-05-06T05:47:43.435Z,6.55
2019-05-06T05:50:22.677Z,6.57
2019-05-06T05:52:56.259Z,6.52
2019-05-06T05:55:27.013Z,6.39
2019-05-06T05:57:58.835Z,6.41
2019-05-06T06:00:32.376Z,6.40
2019-05-06T06:03:06.650Z,6.39
2019-05-06T06:05:35.774Z,6.30
2019-05-06T06:08:06.307Z,6.27
2019-05-06T06:10:58.948Z,6.32
2019-05-06T06:13:29.448Z,6.31
2019-05-06T06:16:16.418Z,6.38
2019-05-06T06:19:07.178Z,6.36
2019-05-06T06:21:45.284Z,6.41
2019-05-06T06:24:22.566Z,6.52
2019-05-06T06:26:53.669Z,6.74
2019-05-06T06:29:24.388Z,6.87
2019-05-06T06:32:17.148Z,7.17
2019-05-06T06:35:08.411Z,7.29
2019-05-06T06:37:56.323Z,7.11
2019-05-06T06:40:29.045Z,6.94
2019-05-06T06:43:03.908Z,6.88
2019-05-06T06:45:35.882Z,6.66
2019-05-06T06:48:06.705Z,6.49
2019-05-06T06:50:37.256Z,6.20
2019-05-06T06:53:07.817Z,6.56
2019-05-06T06:55:42.690Z,6.71
2019-05-06T06:58:35.201Z,6.61
2019-05-06T07:01:26.327Z,6.54
2019-05-06T07:04:10.424Z,6.40
2019-05-06T07:06:47.454Z,6.45
2019-05-06T07:09:18.149Z,6.43
2019-05-06T07:11:48.631Z,6.54
2019-05-06T07:14:19.172Z,6.63
2019-05-06T07:16:49.734Z,6.83
2019-05-06T07:19:27.237Z,7.01
2019-05-06T07:21:58.542Z,7.25
2019-05-06T07:24:29.168Z,7.41
2019-05-06T07:27:08.957Z,7.53
2019-05-06T07:29:39.913Z,7.70
2019-05-06T07:32:12.297Z,7.91
2019-05-06T07:34:43.183Z,7.96
2019-05-06T07:37:13.846Z,8.14
2019-05-06T07:39:44.504Z,8.29
2019-05-06T07:42:19.162Z,8.43
2019-05-06T07:45:06.376Z,8.22
2019-05-06T07:48:04.697Z,8.20
2019-05-06T07:50:36.601Z,8.39
2019-05-06T07:53:07.111Z,8.19
2019-05-06T07:55:42.226Z,8.05
2019-05-06T07:58:13.748Z,7.80
2019-05-06T08:00:44.390Z,7.68
2019-05-06T08:03:14.991Z,7.71
2019-05-06T08:05:54.634Z,7.72
2019-05-06T08:08:17.764Z,7.60
2019-05-06T08:10:48.260Z,7.44
2019-05-06T08:13:18.759Z,7.36
2019-05-06T08:15:49.782Z,7.21
2019-05-06T08:18:21.911Z,7.13
2019-05-06T08:20:52.615Z,6.94
2019-05-06T08:23:32.383Z,6.83
2019-05-06T08:26:12.641Z,6.89
2019-05-06T08:28:40.620Z,7.02
2019-05-06T08:31:07.660Z,7.05
2019-05-06T08:33:38.147Z,7.14
2019-05-06T08:36:14.989Z,7.27
2019-05-06T08:38:58.938Z,7.37
2019-05-06T08:41:29.893Z,7.57
2019-05-06T08:44:02.360Z,7.47
2019-05-06T08:49:03.028Z,7.56
2019-05-06T08:51:49.056Z,7.62
2019-05-06T08:54:35.573Z,7.57
2019-05-06T08:57:06.116Z,7.88
2019-05-06T08:59:36.622Z,8.20
2019-05-06T09:02:07.571Z,8.44
2019-05-06T09:04:38.063Z,8.38
2019-05-06T09:07:08.507Z,8.47
2019-05-06T09:09:39.100Z,8.60
2019-05-06T09:12:09.545Z,8.66
2019-05-06T09:14:39.921Z,8.69
2019-05-06T09:17:12.063Z,8.60
2019-05-06T09:19:42.831Z,8.76
2019-05-06T09:22:13.268Z,8.88
2019-05-06T09:24:43.831Z,8.77
2019-05-06T09:27:19.332Z,8.73
2019-05-06T09:29:52.466Z,8.48
2019-05-06T09:32:42.669Z,7.72
2019-05-06T09:35:13.137Z,7.25
2019-05-06T09:37:43.697Z,7.27
2019-05-06T09:40:15.265Z,7.22
2019-05-06T09:42:45.794Z,7.34
2019-05-06T09:45:16.474Z,7.53
2019-05-06T09:47:59.954Z,7.51
2019-05-06T09:50:46.042Z,7.43
2019-05-06T09:53:18.873Z,7.37
2019-05-06T09:56:07.051Z,7.51
2019-05-06T09:58:42.854Z,7.24
2019-05-06T10:01:14.750Z,7.12
2019-05-06T10:03:45.278Z,7.00
2019-05-06T10:06:15.812Z,6.91
2019-05-06T10:08:46.322Z,7.02
2019-05-06T10:11:16.802Z,7.08
2019-05-06T10:13:47.318Z,7.25
2019-05-06T10:16:17.888Z,7.24
2019-05-06T10:18:48.340Z,7.45
2019-05-06T10:21:18.829Z,7.50
2019-05-06T10:23:49.310Z,7.64
2019-05-06T10:26:19.760Z,7.77
2019-05-06T10:29:15.069Z,8.02
2019-05-06T10:31:52.273Z,7.79
2019-05-06T10:34:22.477Z,7.95
2019-05-06T10:37:22.362Z,8.09
2019-05-06T10:40:04.466Z,8.53
2019-05-06T10:42:46.043Z,8.57
2019-05-06T10:45:32.573Z,8.41
2019-05-06T10:48:03.423Z,7.82
2019-05-06T10:50:37.902Z,7.21
2019-05-06T10:53:19.876Z,7.19
2019-05-06T10:56:03.745Z,7.15
2019-05-06T10:58:34.324Z,7.34
2019-05-06T11:01:30.261Z,7.36
2019-05-06T11:04:02.689Z,7.28
2019-05-06T11:06:33.684Z,7.57
2019-05-06T11:09:06.447Z,7.86
2019-05-06T11:11:38.780Z,8.23
2019-05-06T11:14:09.379Z,8.57
2019-05-06T11:16:39.829Z,8.57
2019-05-06T11:19:10.325Z,8.52
2019-05-06T11:21:42.169Z,8.38
2019-05-06T11:24:12.987Z,8.22
2019-05-06T11:26:43.472Z,8.15
2019-05-06T11:29:22.784Z,8.06
2019-05-06T11:32:10.107Z,8.17
2019-05-06T11:34:46.363Z,8.55
2019-05-06T11:37:23.245Z,8.73
2019-05-06T11:39:53.985Z,8.81
2019-05-06T11:42:31.881Z,8.75
2019-05-06T11:44:56.727Z,8.71
2019-05-06T11:47:27.251Z,8.80
2019-05-06T11:49:59.082Z,9.17
2019-05-06T11:52:29.578Z,9.32
2019-05-06T11:55:02.224Z,9.21
2019-05-06T11:57:32.636Z,9.23
2019-05-06T12:00:03.672Z,9.63
2019-05-06T12:02:34.207Z,9.49
2019-05-06T12:05:05.066Z,9.44
2019-05-06T12:07:35.532Z,9.55
2019-05-06T12:10:06.552Z,9.73
2019-05-06T12:12:37.040Z,9.73
2019-05-06T12:15:08.516Z,9.73
2019-05-06T12:17:39.048Z,10.14
2019-05-06T12:20:12.924Z,10.54
2019-05-06T12:22:43.224Z,10.85
2019-05-06T12:25:15.554Z,11.14
2019-05-06T12:27:46.302Z,11.66
2019-05-06T12:30:23.042Z,11.29
2019-05-06T12:33:13.088Z,11.01
2019-05-06T12:35:47.563Z,12.68
2019-05-06T12:38:30.325Z,12.85
2019-05-06T12:40:59.627Z,13.09
2019-05-06T12:43:43.240Z,12.94
2019-05-06T12:46:24.793Z,12.62
2019-05-06T12:48:55.298Z,12.69
2019-05-06T12:51:25.820Z,12.30
2019-05-06T12:53:56.309Z,12.22
2019-05-06T12:56:27.147Z,11.48
2019-05-06T12:58:57.638Z,11.24
2019-05-06T13:01:28.165Z,11.09
2019-05-06T13:03:58.640Z,11.25
2019-05-06T13:06:29.135Z,11.02
2019-05-06T13:09:04.132Z,11.12
2019-05-06T13:11:31.824Z,11.73
2019-05-06T13:14:04.139Z,12.84
2019-05-06T13:16:34.672Z,12.51
2019-05-06T13:19:05.205Z,11.59
2019-05-06T13:21:35.701Z,10.85
2019-05-06T13:24:07.334Z,10.82
2019-05-06T13:26:37.835Z,10.69
2019-05-06T13:29:14.859Z,10.17
2019-05-06T13:31:45.396Z,10.37
2019-05-06T13:34:21.109Z,10.26
2019-05-06T13:36:53.334Z,10.36
2019-05-06T13:39:24.062Z,10.36
2019-05-06T13:41:54.551Z,11.13
2019-05-06T13:44:25.048Z,11.34
2019-05-06T13:46:56.001Z,11.19
2019-05-06T13:49:38.655Z,11.31
2019-05-06T13:52:13.944Z,11.35
2019-05-06T13:54:44.454Z,10.93
2019-05-06T13:57:15.172Z,10.63
2019-05-06T13:59:45.646Z,10.57
2019-05-06T14:02:43.757Z,10.22
2019-05-06T14:05:14.268Z,10.38
2019-05-06T14:07:44.844Z,10.95
2019-05-06T14:10:16.565Z,10.69
2019-05-06T14:12:47.075Z,10.26
2019-05-06T14:15:18.593Z,10.19
2019-05-06T14:17:49.136Z,10.25
2019-05-06T14:20:21.993Z,10.10
2019-05-06T14:22:52.956Z,10.24
2019-05-06T14:25:38.571Z,10.60
2019-05-06T14:28:16.975Z,10.68
2019-05-06T14:31:06.391Z,11.01
2019-05-06T14:33:36.904Z,10.94
2019-05-06T14:36:07.466Z,10.39
2019-05-06T14:38:38.014Z,10.51
2019-05-06T14:41:15.438Z,10.88
2019-05-06T14:43:45.988Z,11.27
2019-05-06T14:46:16.768Z,11.87
2019-05-06T14:48:47.267Z,12.39
2019-05-06T14:51:17.904Z,12.69
2019-05-06T14:53:48.454Z,12.01
2019-05-06T14:56:28.177Z,11.71
2019-05-06T14:59:05.911Z,11.78
2019-05-06T15:01:39.018Z,10.76
2019-05-06T15:04:12.296Z,10.31
2019-05-06T15:06:42.525Z,10.13
2019-05-06T15:09:14.786Z,9.98
2019-05-06T15:11:45.282Z,9.92
2019-05-06T15:14:15.838Z,9.84
2019-05-06T15:16:46.390Z,9.86
2019-05-06T15:19:16.939Z,9.95
2019-05-06T15:21:47.487Z,9.86
2019-05-06T15:24:21.070Z,9.61
2019-05-06T15:26:52.203Z,9.76
2019-05-06T15:29:23.728Z,9.79
2019-05-06T15:32:05.362Z,9.62
2019-05-06T15:35:02.493Z,9.58
2019-05-06T15:37:47.841Z,9.65
2019-05-06T15:40:31.070Z,9.94
2019-05-06T15:42:53.363Z,10.10
2019-05-06T15:45:23.641Z,10.24
2019-05-06T15:47:54.161Z,10.20
2019-05-06T15:50:24.690Z,10.07
2019-05-06T15:52:55.219Z,10.31
2019-05-06T15:55:25.828Z,9.98
2019-05-06T15:57:56.396Z,9.98
2019-05-06T16:00:27.091Z,9.93
2019-05-06T16:02:57.981Z,9.65
2019-05-06T16:05:31.108Z,9.69
2019-05-06T16:08:02.895Z,9.73
2019-05-06T16:10:50.425Z,9.75
2019-05-06T16:13:06.141Z,9.67
2019-05-06T16:15:37.196Z,9.33
2019-05-06T16:18:07.754Z,9.23
2019-05-06T16:20:38.299Z,9.23
2019-05-06T16:23:32.595Z,9.36
2019-05-06T16:26:03.078Z,9.24
2019-05-06T16:28:33.669Z,9.23
2019-05-06T16:31:04.359Z,9.33
2019-05-06T16:33:36.013Z,9.24
2019-05-06T16:36:06.556Z,9.32
2019-05-06T16:38:37.151Z,9.27
2019-05-06T16:41:12.703Z,9.22
2019-05-06T16:43:42.600Z,9.02
2019-05-06T16:46:13.252Z,8.95
2019-05-06T16:48:45.444Z,8.97
2019-05-06T16:51:16.344Z,8.91
2019-05-06T16:53:46.967Z,8.69
2019-05-06T16:56:27.073Z,8.77
2019-05-06T16:59:00.332Z,8.89
2019-05-06T17:01:34.512Z,8.80
2019-05-06T17:04:23.243Z,8.72
2019-05-06T17:06:53.862Z,8.56
2019-05-06T17:09:27.496Z,8.58
2019-05-06T17:11:57.259Z,8.59
2019-05-06T17:14:27.806Z,8.57
2019-05-06T17:16:58.403Z,8.65
2019-05-06T17:19:29.008Z,8.66
2019-05-06T17:21:59.704Z,8.58
2019-05-06T17:24:32.582Z,8.56
2019-05-06T17:27:02.892Z,8.53
2019-05-06T17:30:01.414Z,8.57
2019-05-06T17:32:52.889Z,8.68
2019-05-06T17:35:23.509Z,8.73
2019-05-06T17:38:04.596Z,8.82
2019-05-06T17:40:35.128Z,8.74
2019-05-06T17:43:05.818Z,8.56
2019-05-06T17:46:07.989Z,8.56
2019-05-06T17:48:56.567Z,8.36
2019-05-06T17:51:36.991Z,8.33
2019-05-06T17:54:06.776Z,8.38
2019-05-06T17:56:41.772Z,8.40
2019-05-06T17:59:12.056Z,8.30
2019-05-06T18:01:46.137Z,8.39
2019-05-06T18:04:16.633Z,8.34
2019-05-06T18:06:47.252Z,8.47
2019-05-06T18:09:17.832Z,8.40
2019-05-06T18:11:58.248Z,8.51
2019-05-06T18:14:23.001Z,8.50
2019-05-06T18:16:53.943Z,8.34
2019-05-06T18:19:24.725Z,8.33
2019-05-06T18:21:55.377Z,8.30
2019-05-06T18:24:26.173Z,8.23
2019-05-06T18:26:58.860Z,8.16
2019-05-06T18:29:29.495Z,8.19
2019-05-06T18:32:00.328Z,8.27
2019-05-06T18:34:32.926Z,8.24
2019-05-06T18:37:03.443Z,8.10
2019-05-06T18:39:34.183Z,8.12
2019-05-06T18:42:18.769Z,8.04
2019-05-06T18:44:37.466Z,7.94
2019-05-06T18:47:08.127Z,7.84
2019-05-06T18:49:39.094Z,7.75
2019-05-06T18:52:09.631Z,7.71
2019-05-06T18:54:40.183Z,7.59
2019-05-06T18:57:12.779Z,7.66
2019-05-06T18:59:43.155Z,7.54
2019-05-06T19:02:14.004Z,7.44
2019-05-06T19:04:49.718Z,7.46
2019-05-06T19:07:22.105Z,7.41
2019-05-06T19:10:05.861Z,7.43
2019-05-06T19:12:41.187Z,7.32
2019-05-06T19:15:09.298Z,7.26
2019-05-06T19:17:39.934Z,7.28
2019-05-06T19:20:11.250Z,7.18
2019-05-06T19:22:43.501Z,7.16
2019-05-06T19:25:14.761Z,7.11
2019-05-06T19:27:45.374Z,7.11
2019-05-06T19:30:17.431Z,7.02
2019-05-06T19:32:48.081Z,6.99
2019-05-06T19:35:19.290Z,7.07
2019-05-06T19:37:49.859Z,6.98
2019-05-06T19:40:22.796Z,6.91
2019-05-06T19:42:53.414Z,6.87
2019-05-06T19:45:24.168Z,6.80
2019-05-06T19:47:54.825Z,6.71
2019-05-06T19:50:26.055Z,6.72
2019-05-06T19:52:56.712Z,6.68
2019-05-06T19:55:28.075Z,6.61
2019-05-06T19:57:58.617Z,6.61
2019-05-06T20:00:29.173Z,6.52
2019-05-06T20:02:59.778Z,6.51
2019-05-06T20:05:36.712Z,6.57
2019-05-06T20:08:23.272Z,6.45
2019-05-06T20:11:24.873Z,6.43
2019-05-06T20:13:55.591Z,6.42
2019-05-06T20:16:26.160Z,6.46
2019-05-06T20:18:56.500Z,6.47
2019-05-06T20:21:27.068Z,6.47
2019-05-06T20:23:57.508Z,6.64
2019-05-06T20:26:27.994Z,6.57
2019-05-06T20:28:58.458Z,6.53
2019-05-06T20:31:28.924Z,6.59
2019-05-06T20:33:59.416Z,6.48
2019-05-06T20:36:30.114Z,6.37
2019-05-06T20:39:02.557Z,6.20
2019-05-06T20:41:32.992Z,6.15
2019-05-06T20:44:03.615Z,6.22
2019-05-06T20:46:34.093Z,6.26
2019-05-06T20:49:04.743Z,6.12
2019-05-06T20:51:35.331Z,6.05
2019-05-06T20:54:05.809Z,5.99
2019-05-06T20:56:36.273Z,5.88
2019-05-06T20:59:06.786Z,5.74
2019-05-06T21:01:37.265Z,5.65
2019-05-06T21:04:07.794Z,5.60
2019-05-06T21:06:38.343Z,5.51
2019-05-06T21:09:12.537Z,5.44
2019-05-06T21:11:42.674Z,5.39
2019-05-06T21:14:13.378Z,5.31
2019-05-06T21:16:48.156Z,5.25
2019-05-06T21:19:19.010Z,5.16
2019-05-06T21:21:49.557Z,5.08
2019-05-06T21:24:22.463Z,5.07
2019-05-06T21:26:53.159Z,4.96
2019-05-06T21:29:23.738Z,5.00
2019-05-06T21:31:54.249Z,4.98
2019-05-06T21:34:24.767Z,4.96
2019-05-06T21:36:55.243Z,4.90
2019-05-06T21:39:25.781Z,4.75
2019-05-06T21:41:56.457Z,4.72
2019-05-06T21:44:27.010Z,4.71
2019-05-06T21:46:57.483Z,4.66
2019-05-06T21:49:28.045Z,4.44
2019-05-06T21:51:58.506Z,4.27
2019-05-06T21:54:28.964Z,4.22
2019-05-06T21:56:59.456Z,4.25
2019-05-06T21:59:29.947Z,4.24
2019-05-06T22:02:00.827Z,4.31
2019-05-06T22:04:32.752Z,4.32
2019-05-06T22:07:03.442Z,4.37
2019-05-06T22:09:33.924Z,4.37
2019-05-06T22:12:04.535Z,4.35
2019-05-06T22:14:35.002Z,4.11
2019-05-06T22:17:07.014Z,3.94
2019-05-06T22:19:37.473Z,3.99
2019-05-06T22:22:09.904Z,3.99
2019-05-06T22:24:47.444Z,4.00
2019-05-06T22:27:18.943Z,3.96
2019-05-06T22:29:49.579Z,3.83
2019-05-06T22:32:20.082Z,3.72
2019-05-06T22:34:50.590Z,3.60
2019-05-06T22:37:22.137Z,3.85
2019-05-06T22:39:52.916Z,3.97
2019-05-06T22:42:24.944Z,3.95
2019-05-06T22:44:55.600Z,3.88
2019-05-06T22:47:26.095Z,3.90
2019-05-06T22:49:56.569Z,3.98
2019-05-06T22:52:27.057Z,4.06
2019-05-06T22:54:57.598Z,4.11
2019-05-06T22:57:28.125Z,4.10
2019-05-06T22:59:58.637Z,4.12
2019-05-06T23:02:38.793Z,4.10
2019-05-06T23:05:12.156Z,4.14
2019-05-06T23:07:42.453Z,4.19
2019-05-06T23:10:12.962Z,4.21
2019-05-06T23:12:43.511Z,4.15
2019-05-06T23:15:14.230Z,4.10
2019-05-06T23:17:44.663Z,4.00
2019-05-06T23:20:15.469Z,4.01
2019-05-06T23:22:45.942Z,3.99
2019-05-06T23:25:16.526Z,4.00
2019-05-06T23:27:46.981Z,4.00
2019-05-06T23:30:17.465Z,3.94
2019-05-06T23:32:47.961Z,3.93
2019-05-06T23:35:18.447Z,3.88
2019-05-06T23:38:42.988Z,3.93
2019-05-06T23:42:06.775Z,3.87
2019-05-06T23:45:32.433Z,3.81
2019-05-06T23:48:57.257Z,3.82
2019-05-06T23:52:22.735Z,3.83
2019-05-06T23:55:47.276Z,3.74
2019-05-06T23:58:15.354Z,3.69
